4XDBV LLHZ-LLHZ

Flight info

Callsign 4XDBV
Flight time 0h 7m
Altitude 800
Route CIRCUITS
Aircraft C172/L-SD/C

Departure

Time 2026-04-22 18:39
Airport Herzliya Airport (LLHZ)

Arrival

Time 2026-04-22 18:46
Airport Herzliya Airport (LLHZ)
Time Latitude Longitude Altitude Speed Heading
2026-04-22 18:26 32.17935 34.83594 110 ft 0 kts 20°
2026-04-22 18:34 32.17941 34.83597 110 ft 3 kts 19°
2026-04-22 18:35 32.17938 34.83650 113 ft 12 kts 111°
2026-04-22 18:35 32.17905 34.83759 118 ft 14 kts 109°
2026-04-22 18:35 32.17880 34.83848 121 ft 0 kts 93°
2026-04-22 18:37 32.17903 34.83865 124 ft 11 kts 345°
2026-04-22 18:37 32.17927 34.83806 122 ft 4 kts 292°
2026-04-22 18:38 32.17998 34.83569 108 ft 56 kts 290°
2026-04-22 18:38 32.18158 34.83053 199 ft 71 kts 300°
2026-04-22 18:38 32.18443 34.82641 379 ft 61 kts 359°
2026-04-22 18:39 32.19279 34.83032 696 ft 67 kts 51°
2026-04-22 18:39 32.19197 34.83614 738 ft 84 kts 111°
2026-04-22 18:39 32.18902 34.84235 781 ft 87 kts 109°
2026-04-22 18:39 32.18604 34.84920 856 ft 99 kts 109°
2026-04-22 18:40 32.18139 34.85398 816 ft 95 kts 191°
2026-04-22 18:40 32.17581 34.85002 565 ft 85 kts 257°
2026-04-22 18:40 32.17728 34.84460 373 ft 68 kts 294°
2026-04-22 18:40 32.17893 34.83915 171 ft 69 kts 295°
2026-04-22 18:41 32.18038 34.83425 176 ft 61 kts 298°
2026-04-22 18:41 32.18203 34.82906 244 ft 75 kts 295°
2026-04-22 18:41 32.18576 34.82641 413 ft 63 kts 12°
2026-04-22 18:41 32.18974 34.82825 577 ft 61 kts 23°
2026-04-22 18:42 32.19331 34.83061 792 ft 61 kts 49°
2026-04-22 18:42 32.19213 34.83641 754 ft 85 kts 111°
2026-04-22 18:42 32.18900 34.84272 774 ft 96 kts 111°
2026-04-22 18:42 32.18571 34.84988 860 ft 97 kts 111°
2026-04-22 18:43 32.18061 34.85268 712 ft 94 kts 203°
2026-04-22 18:43 32.17560 34.84942 541 ft 70 kts 272°
2026-04-22 18:43 32.17738 34.84431 323 ft 82 kts 296°
2026-04-22 18:43 32.17940 34.83755 489 ft 87 kts 297°
2026-04-22 18:44 32.18160 34.83093 685 ft 87 kts 301°
2026-04-22 18:44 32.18584 34.82717 774 ft 79 kts 15°
2026-04-22 18:44 32.19099 34.82879 814 ft 74 kts 17°
2026-04-22 18:44 32.19401 34.83308 799 ft 95 kts 107°
2026-04-22 18:45 32.19064 34.84020 760 ft 103 kts 110°
2026-04-22 18:45 32.18742 34.84764 772 ft 98 kts 109°
2026-04-22 18:45 32.18376 34.85288 671 ft 90 kts 173°
2026-04-22 18:45 32.17741 34.85158 403 ft 90 kts 203°
2026-04-22 18:46 32.17671 34.84662 368 ft 66 kts 293°
2026-04-22 18:46 32.17836 34.84117 245 ft 77 kts 294°
2026-04-22 18:46 32.17997 34.83571 116 ft 58 kts 289°
2026-04-22 18:46 32.18107 34.83205 97 ft 39 kts 290°
2026-04-22 18:47 32.18112 34.83066 97 ft 0 kts 126°
2026-04-22 18:47 32.18097 34.83113 98 ft 11 kts 104°
2026-04-22 18:47 32.18061 34.83235 101 ft 19 kts 109°
2026-04-22 18:48 32.18019 34.83372 104 ft 16 kts 107°
2026-04-22 18:48 32.17979 34.83512 107 ft 20 kts 110°
2026-04-22 18:48 32.17929 34.83673 114 ft 10 kts 127°
2026-04-22 18:48 32.17909 34.83653 113 ft 5 kts 240°
2026-04-22 18:49 32.17900 34.83655 114 ft 5 kts 87°
2026-04-22 18:49 32.17902 34.83659 114 ft 0 kts 31°